createdAt,value
2022-11-03T00:03:15.862Z,7.25
2022-11-03T00:08:17.407Z,6.95
2022-11-03T00:13:18.942Z,6.75
2022-11-03T00:18:20.557Z,7.07
2022-11-03T00:23:22.085Z,6.00
2022-11-03T00:28:23.613Z,6.72
2022-11-03T00:33:26.919Z,6.38
2022-11-03T00:38:29.621Z,6.72
2022-11-03T00:43:33.599Z,6.00
2022-11-03T00:48:36.705Z,6.13
2022-11-03T00:53:46.930Z,6.40
2022-11-03T00:58:49.960Z,6.80
2022-11-03T01:04:12.523Z,6.82
2022-11-03T01:09:14.595Z,6.43
2022-11-03T01:14:16.952Z,6.97
2022-11-03T01:19:18.518Z,6.45
2022-11-03T01:24:20.204Z,6.90
2022-11-03T01:29:21.826Z,6.97
2022-11-03T01:34:23.479Z,6.72
2022-11-03T01:39:25.041Z,6.50
2022-11-03T01:44:31.103Z,7.10
2022-11-03T01:49:32.584Z,7.43
2022-11-03T01:54:36.502Z,7.95
2022-11-03T01:59:39.453Z,8.00
2022-11-03T02:04:42.492Z,7.93
2022-11-03T02:09:44.129Z,8.82
2022-11-03T02:14:56.792Z,8.95
2022-11-03T02:20:12.055Z,8.43
2022-11-03T02:25:36.818Z,8.52
2022-11-03T02:30:52.101Z,8.93
2022-11-03T02:36:15.871Z,8.27
2022-11-03T02:41:18.779Z,8.48
2022-11-03T02:46:21.759Z,8.00
2022-11-03T02:51:24.623Z,8.77
2022-11-03T02:56:26.329Z,7.82
2022-11-03T03:01:39.835Z,8.07
2022-11-03T03:07:05.242Z,7.50
2022-11-03T03:12:10.645Z,8.00
2022-11-03T03:17:44.781Z,7.03
2022-11-03T03:23:21.923Z,7.80
2022-11-03T03:28:34.655Z,7.60
2022-11-03T03:33:39.801Z,8.13
2022-11-03T03:38:53.324Z,7.38
2022-11-03T03:43:59.043Z,8.25
2022-11-03T03:49:00.718Z,7.82
2022-11-03T03:54:02.308Z,8.23
2022-11-03T03:59:04.574Z,7.93
2022-11-03T04:04:06.166Z,7.72
2022-11-03T04:09:09.496Z,8.05
2022-11-03T04:14:29.644Z,8.00
2022-11-03T04:19:49.518Z,8.57
2022-11-03T04:24:52.216Z,8.25
2022-11-03T04:29:57.998Z,8.00
2022-11-03T04:35:00.084Z,7.63
2022-11-03T04:40:01.933Z,7.55
2022-11-03T04:45:14.458Z,7.28
2022-11-03T04:50:21.870Z,7.93
2022-11-03T04:55:24.443Z,8.32
2022-11-03T05:00:26.240Z,6.65
2022-11-03T05:05:27.871Z,6.63
2022-11-03T05:10:29.628Z,6.30
2022-11-03T05:15:42.706Z,5.45
2022-11-03T05:21:12.492Z,6.18
2022-11-03T05:26:28.403Z,6.05
2022-11-03T05:31:32.219Z,6.40
2022-11-03T05:36:33.964Z,5.55
2022-11-03T05:41:36.048Z,6.50
2022-11-03T05:46:38.083Z,6.47
2022-11-03T05:51:41.929Z,6.70
2022-11-03T05:56:43.497Z,6.25
2022-11-03T06:01:45.190Z,5.95
2022-11-03T06:06:55.795Z,6.70
2022-11-03T06:12:00.551Z,6.28
2022-11-03T06:17:05.918Z,7.05
2022-11-03T06:22:25.843Z,7.28
2022-11-03T06:27:32.103Z,7.57
2022-11-03T06:32:34.014Z,7.90
2022-11-03T06:37:35.579Z,7.80
2022-11-03T06:42:39.925Z,8.82
2022-11-03T06:47:41.532Z,10.88
2022-11-03T06:57:55.773Z,11.70
2022-11-03T07:03:19.260Z,9.93
2022-11-03T07:08:28.850Z,8.80
2022-11-03T07:13:32.691Z,9.48
2022-11-03T07:18:44.399Z,8.63
2022-11-03T07:23:47.204Z,9.30
2022-11-03T07:28:49.272Z,10.32
2022-11-03T07:33:56.825Z,10.93
2022-11-03T07:39:01.350Z,9.95
2022-11-03T07:44:03.142Z,9.50
2022-11-03T07:49:09.021Z,9.07
2022-11-03T07:54:45.239Z,9.25
2022-11-03T07:59:50.496Z,9.98
2022-11-03T08:04:52.133Z,8.52
2022-11-03T08:09:54.284Z,8.02
2022-11-03T08:14:55.839Z,7.57
2022-11-03T08:19:57.418Z,6.53
2022-11-03T08:24:58.947Z,6.70
2022-11-03T08:30:00.490Z,6.80
2022-11-03T08:35:02.034Z,5.72
2022-11-03T08:40:04.567Z,6.38
2022-11-03T08:45:06.986Z,6.50
2022-11-03T08:50:08.669Z,6.10
2022-11-03T08:55:10.220Z,5.80
2022-11-03T09:00:12.467Z,6.45
2022-11-03T09:05:14.204Z,6.22
2022-11-03T09:15:22.366Z,4.85
2022-11-03T09:20:24.448Z,4.32
2022-11-03T09:25:26.022Z,4.25
2022-11-03T09:30:27.680Z,4.25
2022-11-03T09:35:29.225Z,3.83
2022-11-03T09:40:30.799Z,3.40
2022-11-03T09:45:32.539Z,4.50
2022-11-03T09:50:34.137Z,4.60
2022-11-03T09:55:35.800Z,4.00
2022-11-03T10:00:37.368Z,3.70
2022-11-03T10:05:40.095Z,3.90
2022-11-03T10:10:41.744Z,4.10
2022-11-03T10:15:43.391Z,4.15
2022-11-03T10:20:45.455Z,4.10
2022-11-03T10:25:47.057Z,3.65
2022-11-03T10:31:14.347Z,3.30
2022-11-03T10:36:15.888Z,3.28
2022-11-03T10:41:27.901Z,3.50
2022-11-03T10:46:49.029Z,3.95
2022-11-03T10:51:53.777Z,3.20
2022-11-03T10:56:55.383Z,4.13
2022-11-03T11:01:58.743Z,3.92
2022-11-03T11:07:00.429Z,3.92
2022-11-03T11:12:22.446Z,3.13
2022-11-03T11:17:48.005Z,3.50
2022-11-03T11:22:50.747Z,3.10
2022-11-03T11:27:58.294Z,3.42
2022-11-03T11:33:21.588Z,3.17
2022-11-03T11:38:55.704Z,3.40
2022-11-03T11:44:35.901Z,2.95
2022-11-03T11:49:37.550Z,3.30
2022-11-03T11:54:43.069Z,2.80
2022-11-03T11:59:47.047Z,2.53
2022-11-03T12:04:52.379Z,3.42
2022-11-03T12:09:53.919Z,3.25
2022-11-03T12:14:55.459Z,3.20
2022-11-03T12:19:57.043Z,3.00
2022-11-03T12:25:08.520Z,3.15
2022-11-03T12:30:16.094Z,3.30
2022-11-03T12:35:17.982Z,3.90
2022-11-03T12:40:19.560Z,3.45
2022-11-03T12:45:21.104Z,3.20
2022-11-03T12:50:22.698Z,3.53
2022-11-03T12:55:24.289Z,3.58
2022-11-03T13:00:25.865Z,3.28
2022-11-03T13:05:27.435Z,3.55
2022-11-03T13:10:28.974Z,3.70
2022-11-03T13:15:30.511Z,3.38
2022-11-03T13:20:33.150Z,3.53
2022-11-03T13:25:34.784Z,3.58
2022-11-03T13:30:36.639Z,3.50
2022-11-03T13:35:38.235Z,4.20
2022-11-03T13:40:56.217Z,6.03
2022-11-03T13:51:04.194Z,5.85
2022-11-03T13:56:07.807Z,5.45
2022-11-03T14:01:10.590Z,6.07
2022-11-03T14:06:12.174Z,5.60
2022-11-03T14:11:32.276Z,5.78
2022-11-03T14:16:33.869Z,4.50
2022-11-03T14:21:37.558Z,5.95
2022-11-03T14:26:43.214Z,5.13
2022-11-03T14:31:45.128Z,4.80
2022-11-03T14:36:46.723Z,4.88
2022-11-03T14:42:03.524Z,5.65
2022-11-03T14:47:07.517Z,5.35
2022-11-03T14:52:09.706Z,5.00
2022-11-03T14:57:11.457Z,5.05
2022-11-03T15:02:13.770Z,5.00
2022-11-03T15:07:15.439Z,5.38
2022-11-03T15:12:16.992Z,5.78
2022-11-03T15:17:18.570Z,7.05
2022-11-03T15:22:20.218Z,9.55
2022-11-03T15:27:21.947Z,9.13
2022-11-03T15:32:23.514Z,8.15
2022-11-03T15:37:25.433Z,7.68
2022-11-03T15:42:27.023Z,7.72
2022-11-03T15:47:28.591Z,9.00
2022-11-03T15:52:30.126Z,8.57
2022-11-03T15:57:32.661Z,8.23
2022-11-03T16:02:41.467Z,8.93
2022-11-03T16:07:43.798Z,9.02
2022-11-03T16:12:45.866Z,9.20
2022-11-03T16:17:47.401Z,10.15
2022-11-03T16:22:48.980Z,11.02
2022-11-03T16:27:50.664Z,10.27
2022-11-03T16:32:53.502Z,10.27
2022-11-03T16:37:55.090Z,9.82
2022-11-03T16:42:56.972Z,9.35
2022-11-03T16:47:58.822Z,9.93
2022-11-03T16:53:00.395Z,9.27
2022-11-03T16:58:02.065Z,9.15
2022-11-03T17:03:04.668Z,9.40
2022-11-03T17:08:08.107Z,8.32
2022-11-03T17:13:17.670Z,8.32
2022-11-03T17:18:19.224Z,8.73
2022-11-03T17:23:20.798Z,8.95
2022-11-03T17:28:22.583Z,9.43
2022-11-03T17:33:24.211Z,10.05
2022-11-03T17:38:26.471Z,10.32
2022-11-03T17:43:30.087Z,9.82
2022-11-03T17:48:31.736Z,11.05
2022-11-03T17:53:34.318Z,10.25
2022-11-03T17:58:41.756Z,11.13
2022-11-03T18:03:46.614Z,11.63
2022-11-03T18:08:49.317Z,11.20
2022-11-03T18:13:50.874Z,12.32
2022-11-03T18:18:52.525Z,11.90
2022-11-03T18:23:55.613Z,12.90
2022-11-03T18:28:57.418Z,13.55
2022-11-03T18:34:01.365Z,13.80
2022-11-03T18:39:04.582Z,14.30
2022-11-03T18:44:19.478Z,12.88
2022-11-03T18:49:21.528Z,15.35
2022-11-03T18:54:24.997Z,15.05
2022-11-03T18:59:33.129Z,15.25
2022-11-03T19:04:36.864Z,15.73
2022-11-03T19:09:38.849Z,15.27
2022-11-03T19:14:45.097Z,16.38
2022-11-03T19:19:46.989Z,16.75
2022-11-03T19:24:48.879Z,16.17
2022-11-03T19:29:50.534Z,18.95
2022-11-03T19:35:01.511Z,18.40
2022-11-03T19:40:09.418Z,16.00
2022-11-03T19:45:18.185Z,17.05
2022-11-03T19:50:26.229Z,15.80
2022-11-03T19:55:32.652Z,18.17
2022-11-03T20:00:34.203Z,15.80
2022-11-03T20:05:35.969Z,14.10
2022-11-03T20:10:38.640Z,14.23
2022-11-03T20:15:40.205Z,14.65
2022-11-03T20:20:43.799Z,16.08
2022-11-03T20:25:45.989Z,19.98
2022-11-03T20:30:48.968Z,17.33
2022-11-03T20:35:52.199Z,19.40
2022-11-03T20:40:58.778Z,18.05
2022-11-03T20:46:01.031Z,17.25
2022-11-03T20:51:02.595Z,16.55
2022-11-03T20:56:05.519Z,15.95
2022-11-03T21:01:15.109Z,16.90
2022-11-03T21:06:18.702Z,16.10
2022-11-03T21:11:23.378Z,15.15
2022-11-03T21:16:44.774Z,15.68
2022-11-03T21:21:46.504Z,16.45
2022-11-03T21:26:48.096Z,15.65
2022-11-03T21:31:49.681Z,16.23
2022-11-03T21:36:51.231Z,15.32
2022-11-03T21:42:11.278Z,16.27
2022-11-03T21:47:12.810Z,15.73
2022-11-03T21:52:31.611Z,16.02
2022-11-03T21:57:33.335Z,15.75
2022-11-03T22:02:34.853Z,14.27
2022-11-03T22:07:36.397Z,16.27
2022-11-03T22:12:38.196Z,16.58
2022-11-03T22:17:39.726Z,12.38
2022-11-03T22:23:00.023Z,15.20
2022-11-03T22:28:01.600Z,16.10
2022-11-03T22:33:03.185Z,15.35
2022-11-03T22:38:16.647Z,14.25
2022-11-03T22:43:41.292Z,16.92
2022-11-03T22:48:43.537Z,14.80
2022-11-03T22:54:03.293Z,15.88
2022-11-03T22:59:06.672Z,15.45
2022-11-03T23:04:08.356Z,15.25
2022-11-03T23:09:11.412Z,16.08
2022-11-03T23:14:12.949Z,15.15
2022-11-03T23:19:34.090Z,15.30
2022-11-03T23:24:54.366Z,15.55
2022-11-03T23:29:55.944Z,15.15
2022-11-03T23:34:57.488Z,16.08
2022-11-03T23:39:59.004Z,15.95
2022-11-03T23:45:19.105Z,15.93
2022-11-03T23:50:20.642Z,14.60
2022-11-03T23:55:22.194Z,14.93
